createdAt,value
2023-03-27T00:01:12.465Z,3.78
2023-03-27T00:03:39.800Z,3.28
2023-03-27T00:06:11.056Z,2.17
2023-03-27T00:08:38.677Z,3.92
2023-03-27T00:11:07.146Z,1.60
2023-03-27T00:13:36.731Z,4.85
2023-03-27T00:18:43.799Z,1.90
2023-03-27T00:21:10.637Z,0.98
2023-03-27T00:23:38.516Z,2.08
2023-03-27T00:26:06.207Z,4.53
2023-03-27T00:28:33.236Z,2.47
2023-03-27T00:31:01.858Z,1.35
2023-03-27T00:33:28.996Z,2.72
2023-03-27T00:35:56.136Z,1.52
2023-03-27T00:38:23.230Z,2.78
2023-03-27T00:40:50.921Z,1.85
2023-03-27T00:43:24.108Z,1.13
2023-03-27T00:45:58.401Z,2.40
2023-03-27T00:48:27.406Z,0.73
2023-03-27T00:50:56.909Z,2.05
2023-03-27T00:53:28.925Z,2.45
2023-03-27T00:56:02.727Z,1.00
2023-03-27T00:58:36.836Z,2.83
2023-03-27T01:01:04.289Z,4.88
2023-03-27T01:03:35.285Z,1.33
2023-03-27T01:06:04.297Z,1.73
2023-03-27T01:08:34.607Z,1.88
2023-03-27T01:11:19.367Z,5.30
2023-03-27T01:14:11.068Z,1.13
2023-03-27T01:16:51.865Z,2.45
2023-03-27T01:19:59.729Z,1.02
2023-03-27T01:23:08.946Z,0.82
2023-03-27T01:26:19.341Z,1.50
2023-03-27T01:29:12.589Z,1.33
2023-03-27T01:32:02.840Z,1.73
2023-03-27T01:35:20.338Z,2.00
2023-03-27T01:38:23.704Z,1.27
2023-03-27T01:41:00.918Z,1.65
2023-03-27T01:43:35.305Z,4.40
2023-03-27T01:46:08.842Z,2.30
2023-03-27T01:48:43.279Z,3.28
2023-03-27T01:51:16.935Z,2.95
2023-03-27T01:53:50.590Z,3.50
2023-03-27T01:56:25.070Z,4.38
2023-03-27T01:58:57.638Z,1.45
2023-03-27T02:01:34.716Z,2.80
2023-03-27T02:04:06.964Z,1.35
2023-03-27T02:06:40.951Z,1.67
2023-03-27T02:09:18.068Z,2.28
2023-03-27T02:11:56.709Z,2.17
2023-03-27T02:14:30.577Z,1.65
2023-03-27T02:17:05.564Z,1.70
2023-03-27T02:19:37.017Z,0.97
2023-03-27T02:22:04.685Z,1.65
2023-03-27T02:24:43.148Z,1.52
2023-03-27T02:27:23.882Z,1.47
2023-03-27T02:30:08.754Z,5.53
2023-03-27T02:32:47.954Z,0.35
2023-03-27T02:35:33.053Z,2.77
2023-03-27T02:38:19.441Z,1.80
2023-03-27T02:41:08.369Z,3.60
2023-03-27T02:44:07.072Z,1.70
2023-03-27T02:47:07.547Z,2.22
2023-03-27T02:49:44.136Z,1.83
2023-03-27T02:52:20.388Z,1.20
2023-03-27T02:54:56.480Z,0.90
2023-03-27T02:57:29.993Z,1.67
2023-03-27T03:00:29.064Z,1.23
2023-03-27T03:03:24.996Z,4.13
2023-03-27T03:05:59.518Z,4.43
2023-03-27T03:08:26.797Z,2.33
2023-03-27T03:11:07.736Z,2.40
2023-03-27T03:13:37.103Z,2.47
2023-03-27T03:16:09.481Z,1.43
2023-03-27T03:18:36.551Z,3.73
2023-03-27T03:21:04.718Z,5.20
2023-03-27T03:23:32.159Z,3.60
2023-03-27T03:26:01.845Z,4.03
2023-03-27T03:28:34.982Z,0.70
2023-03-27T03:31:04.142Z,1.70
2023-03-27T03:33:33.728Z,4.13
2023-03-27T03:36:01.230Z,2.53
2023-03-27T03:38:38.433Z,1.00
2023-03-27T03:41:15.322Z,1.33
2023-03-27T03:43:45.904Z,3.40
2023-03-27T03:46:13.103Z,3.73
2023-03-27T03:48:43.164Z,1.90
2023-03-27T03:51:10.599Z,2.30
2023-03-27T03:53:37.568Z,2.40
2023-03-27T03:56:08.099Z,1.63
2023-03-27T03:58:44.876Z,2.80
2023-03-27T04:01:11.911Z,3.03
2023-03-27T04:03:51.485Z,2.20
2023-03-27T04:06:29.155Z,4.03
2023-03-27T04:09:08.863Z,1.37
2023-03-27T04:12:01.544Z,2.03
2023-03-27T04:14:57.352Z,0.90
2023-03-27T04:17:54.654Z,1.70
2023-03-27T04:20:23.559Z,4.07
2023-03-27T04:22:55.778Z,2.40
2023-03-27T04:25:24.999Z,1.80
2023-03-27T04:27:52.466Z,2.90
2023-03-27T04:30:32.171Z,2.90
2023-03-27T04:33:17.760Z,1.43
2023-03-27T04:36:10.743Z,1.97
2023-03-27T04:38:48.717Z,1.53
2023-03-27T04:41:17.224Z,0.97
2023-03-27T04:43:44.287Z,1.27
2023-03-27T04:46:11.730Z,3.17
2023-03-27T04:48:40.494Z,3.50
2023-03-27T04:51:21.660Z,2.00
2023-03-27T04:53:49.712Z,3.03
2023-03-27T04:56:21.503Z,7.05
2023-03-27T04:58:51.169Z,1.00
2023-03-27T05:01:18.014Z,2.53
2023-03-27T05:04:03.570Z,3.90
2023-03-27T05:06:52.729Z,2.60
2023-03-27T05:09:20.380Z,3.47
2023-03-27T05:11:49.329Z,3.90
2023-03-27T05:14:19.585Z,4.13
2023-03-27T05:16:47.527Z,1.13
2023-03-27T05:19:14.945Z,1.93
2023-03-27T05:21:48.735Z,2.83
2023-03-27T05:24:17.242Z,3.33
2023-03-27T05:26:45.712Z,1.30
2023-03-27T05:29:12.679Z,1.63
2023-03-27T05:31:43.059Z,1.03
2023-03-27T05:34:31.296Z,1.53
2023-03-27T05:37:01.522Z,1.43
2023-03-27T05:39:30.066Z,2.23
2023-03-27T05:41:57.127Z,2.83
2023-03-27T05:44:29.857Z,3.70
2023-03-27T05:46:56.824Z,1.50
2023-03-27T05:49:27.994Z,3.87
2023-03-27T05:52:06.527Z,2.17
2023-03-27T05:54:34.882Z,3.27
2023-03-27T05:57:08.558Z,6.70
2023-03-27T05:59:38.434Z,3.77
2023-03-27T06:02:31.936Z,2.83
2023-03-27T06:07:36.839Z,6.30
2023-03-27T06:10:13.398Z,2.83
2023-03-27T06:16:06.991Z,4.30
2023-03-27T06:18:52.806Z,3.63
2023-03-27T06:21:20.381Z,2.92
2023-03-27T06:23:47.434Z,4.97
2023-03-27T06:26:17.390Z,2.00
2023-03-27T06:28:44.418Z,1.55
2023-03-27T06:31:12.441Z,2.75
2023-03-27T06:33:42.688Z,1.95
2023-03-27T06:36:21.253Z,3.65
2023-03-27T06:38:51.741Z,1.83
2023-03-27T06:41:20.250Z,3.40
2023-03-27T06:44:08.519Z,3.13
2023-03-27T06:46:53.976Z,25.27
2023-03-27T06:49:29.202Z,26.40
2023-03-27T06:51:56.903Z,25.17
2023-03-27T06:54:24.482Z,6.95
2023-03-27T06:56:55.585Z,4.88
2023-03-27T06:59:23.221Z,3.53
2023-03-27T07:01:56.430Z,4.22
2023-03-27T07:04:57.758Z,2.05
2023-03-27T07:07:34.605Z,7.05
2023-03-27T07:10:03.415Z,3.38
2023-03-27T07:12:32.143Z,2.15
2023-03-27T07:15:00.532Z,1.17
2023-03-27T07:17:38.509Z,4.93
2023-03-27T07:20:14.828Z,3.67
2023-03-27T07:22:41.993Z,1.02
2023-03-27T07:25:11.677Z,2.75
2023-03-27T07:27:43.539Z,2.97
2023-03-27T07:30:12.136Z,3.22
2023-03-27T07:32:42.095Z,1.88
2023-03-27T07:35:10.406Z,6.18
2023-03-27T07:38:06.211Z,2.58
2023-03-27T07:40:55.938Z,9.40
2023-03-27T07:43:30.246Z,13.63
2023-03-27T07:45:58.589Z,10.73
2023-03-27T07:48:27.142Z,7.25
2023-03-27T07:50:58.270Z,5.75
2023-03-27T07:53:34.397Z,8.38
2023-03-27T07:56:23.008Z,4.65
2023-03-27T07:58:59.692Z,8.27
2023-03-27T08:01:27.871Z,10.25
2023-03-27T08:03:55.064Z,18.00
2023-03-27T08:06:22.907Z,10.38
2023-03-27T08:08:50.876Z,14.75
2023-03-27T08:11:27.802Z,7.97
2023-03-27T08:13:58.952Z,11.27
2023-03-27T08:16:27.722Z,9.18
2023-03-27T08:18:56.443Z,9.50
2023-03-27T08:21:24.623Z,12.73
2023-03-27T08:23:51.740Z,5.90
2023-03-27T08:26:54.074Z,9.25
2023-03-27T08:29:23.151Z,17.23
2023-03-27T08:31:50.002Z,8.75
2023-03-27T08:34:17.018Z,7.65
2023-03-27T08:36:46.689Z,5.18
2023-03-27T08:39:14.783Z,3.20
2023-03-27T08:42:08.159Z,4.25
2023-03-27T08:45:10.296Z,3.42
2023-03-27T08:47:51.689Z,5.18
2023-03-27T08:50:36.316Z,2.90
2023-03-27T08:53:29.722Z,2.20
2023-03-27T08:55:58.553Z,1.40
2023-03-27T08:58:33.482Z,1.17
2023-03-27T09:01:26.588Z,1.88
2023-03-27T09:04:05.170Z,2.42
2023-03-27T09:06:43.963Z,6.20
2023-03-27T09:09:29.774Z,1.80
2023-03-27T09:12:12.302Z,4.15
2023-03-27T09:14:45.615Z,3.42
2023-03-27T09:17:21.518Z,3.83
2023-03-27T09:19:56.766Z,2.40
2023-03-27T09:22:31.256Z,2.25
2023-03-27T09:25:32.028Z,2.95
2023-03-27T09:28:01.639Z,1.33
2023-03-27T09:30:39.163Z,1.25
2023-03-27T09:33:22.555Z,4.43
2023-03-27T09:35:50.011Z,5.72
2023-03-27T09:38:28.016Z,2.92
2023-03-27T09:41:01.441Z,3.83
2023-03-27T09:43:40.824Z,3.53
2023-03-27T09:46:11.881Z,3.97
2023-03-27T09:48:48.693Z,2.08
2023-03-27T09:51:43.738Z,3.15
2023-03-27T09:54:52.439Z,1.77
2023-03-27T09:57:31.036Z,5.03
2023-03-27T10:00:02.143Z,3.08
2023-03-27T10:02:31.102Z,1.70
2023-03-27T10:07:57.236Z,3.20
2023-03-27T10:10:28.686Z,1.08
2023-03-27T10:13:15.685Z,2.28
2023-03-27T10:15:50.771Z,3.35
2023-03-27T10:18:29.667Z,2.45
2023-03-27T10:21:12.390Z,2.38
2023-03-27T10:23:44.511Z,2.75
2023-03-27T10:26:27.103Z,2.70
2023-03-27T10:29:00.468Z,1.25
2023-03-27T10:31:37.727Z,2.90
2023-03-27T10:34:38.468Z,2.17
2023-03-27T10:37:30.266Z,2.15
2023-03-27T10:40:20.493Z,2.85
2023-03-27T10:42:56.328Z,2.53
2023-03-27T10:45:24.108Z,3.80
2023-03-27T10:48:00.694Z,2.63
2023-03-27T10:50:34.329Z,1.17
2023-03-27T10:53:15.807Z,1.15
2023-03-27T10:56:04.785Z,1.83
2023-03-27T10:58:44.078Z,2.35
2023-03-27T11:01:19.083Z,1.42
2023-03-27T11:03:57.098Z,2.17
2023-03-27T11:06:32.536Z,0.93
2023-03-27T11:09:09.417Z,1.30
2023-03-27T11:11:51.373Z,0.63
2023-03-27T11:14:26.210Z,1.17
2023-03-27T11:17:00.308Z,1.77
2023-03-27T11:19:54.284Z,0.82
2023-03-27T11:22:34.640Z,1.25
2023-03-27T11:25:22.085Z,0.75
2023-03-27T11:28:03.808Z,3.33
2023-03-27T11:30:38.394Z,2.05
2023-03-27T11:33:31.355Z,1.15
2023-03-27T11:36:33.118Z,1.15
2023-03-27T11:39:20.633Z,2.13
2023-03-27T11:44:46.098Z,1.67
2023-03-27T11:47:55.582Z,2.28
2023-03-27T11:50:35.147Z,2.10
2023-03-27T11:53:34.446Z,2.15
2023-03-27T11:56:30.710Z,3.47
2023-03-27T11:59:51.566Z,1.55
2023-03-27T12:02:37.654Z,0.80
2023-03-27T12:05:20.656Z,1.05
2023-03-27T12:08:04.545Z,2.42
2023-03-27T12:10:35.436Z,0.38
2023-03-27T12:14:01.061Z,0.10
2023-03-27T12:17:18.247Z,0.63
2023-03-27T12:20:35.210Z,0.45
2023-03-27T12:23:31.338Z,0.40
2023-03-27T12:26:41.186Z,1.30
2023-03-27T12:29:59.707Z,1.08
2023-03-27T12:33:00.110Z,0.82
2023-03-27T12:35:32.182Z,3.10
2023-03-27T12:38:02.911Z,1.50
2023-03-27T12:40:40.227Z,2.50
2023-03-27T12:43:27.606Z,2.03
2023-03-27T12:46:18.955Z,3.42
2023-03-27T12:48:56.346Z,2.67
2023-03-27T12:51:41.487Z,1.75
2023-03-27T12:54:30.051Z,1.98
2023-03-27T12:57:06.325Z,1.55
2023-03-27T12:59:38.718Z,2.83
2023-03-27T13:03:03.432Z,3.10
2023-03-27T13:05:59.562Z,1.63
2023-03-27T13:08:48.395Z,2.10
2023-03-27T13:11:42.969Z,4.18
2023-03-27T13:14:41.901Z,3.47
2023-03-27T13:17:40.876Z,3.45
2023-03-27T13:20:23.176Z,2.40
2023-03-27T13:23:15.461Z,1.17
2023-03-27T13:26:03.719Z,2.53
2023-03-27T13:28:37.960Z,2.13
2023-03-27T13:31:13.193Z,3.83
2023-03-27T13:33:46.868Z,1.83
2023-03-27T13:36:26.910Z,2.30
2023-03-27T13:39:23.285Z,4.38
2023-03-27T13:45:03.085Z,3.20
2023-03-27T13:48:29.055Z,2.47
2023-03-27T13:51:21.143Z,2.45
2023-03-27T13:54:35.006Z,2.72
2023-03-27T13:57:20.760Z,4.53
2023-03-27T14:00:29.060Z,2.17
2023-03-27T14:03:41.051Z,2.42
2023-03-27T14:07:01.275Z,2.17
2023-03-27T14:09:54.617Z,4.45
2023-03-27T14:12:46.749Z,1.23
2023-03-27T14:16:01.461Z,4.32
2023-03-27T14:19:01.529Z,1.38
2023-03-27T14:21:47.893Z,1.70
2023-03-27T14:24:29.848Z,0.30
2023-03-27T14:27:17.068Z,0.95
2023-03-27T14:29:44.463Z,1.73
2023-03-27T14:32:16.266Z,2.78
2023-03-27T14:37:36.673Z,1.98
2023-03-27T14:40:20.906Z,1.90
2023-03-27T14:42:52.122Z,2.50
2023-03-27T14:45:23.086Z,0.75
2023-03-27T14:48:01.003Z,1.42
2023-03-27T14:50:37.552Z,3.63
2023-03-27T14:53:10.531Z,3.28
2023-03-27T14:56:05.742Z,2.60
2023-03-27T14:58:57.197Z,4.35
2023-03-27T15:01:27.351Z,1.73
2023-03-27T15:03:55.564Z,3.90
2023-03-27T15:06:23.503Z,2.05
2023-03-27T15:08:57.104Z,3.70
2023-03-27T15:11:48.527Z,2.53
2023-03-27T15:14:29.162Z,2.35
2023-03-27T15:17:02.926Z,3.55
2023-03-27T15:19:40.537Z,1.90
2023-03-27T15:22:39.848Z,2.10
2023-03-27T15:25:13.409Z,2.95
2023-03-27T15:27:42.714Z,0.47
2023-03-27T15:30:25.903Z,1.02
2023-03-27T15:32:57.176Z,0.85
2023-03-27T15:35:31.720Z,1.48
2023-03-27T15:38:00.159Z,0.65
2023-03-27T15:40:32.760Z,1.05
2023-03-27T15:43:17.978Z,1.10
2023-03-27T15:46:02.641Z,2.45
2023-03-27T15:48:32.689Z,1.73
2023-03-27T15:51:02.849Z,3.20
2023-03-27T15:53:33.384Z,4.88
2023-03-27T15:56:05.795Z,1.38
2023-03-27T16:01:20.102Z,1.92
2023-03-27T16:03:47.973Z,2.22
2023-03-27T16:06:27.675Z,1.20
2023-03-27T16:08:55.480Z,3.15
2023-03-27T16:11:45.949Z,1.30
2023-03-27T16:14:31.654Z,0.88
2023-03-27T16:17:21.723Z,3.58
2023-03-27T16:19:52.908Z,2.22
2023-03-27T16:22:23.379Z,1.58
2023-03-27T16:24:51.418Z,1.23
2023-03-27T16:27:20.538Z,3.25
2023-03-27T16:29:47.516Z,1.48
2023-03-27T16:32:17.755Z,1.25
2023-03-27T16:34:45.081Z,1.90
2023-03-27T16:37:12.248Z,3.15
2023-03-27T16:39:39.329Z,1.50
2023-03-27T16:42:11.329Z,1.70
2023-03-27T16:44:38.335Z,2.50
2023-03-27T16:47:05.990Z,3.17
2023-03-27T16:49:35.075Z,1.98
2023-03-27T16:52:02.249Z,2.42
2023-03-27T16:54:29.169Z,3.47
2023-03-27T16:56:56.255Z,0.63
2023-03-27T16:59:24.132Z,1.48
2023-03-27T17:01:51.394Z,3.97
2023-03-27T17:04:19.012Z,2.22
2023-03-27T17:06:47.667Z,2.60
2023-03-27T17:09:15.390Z,4.10
2023-03-27T17:11:42.522Z,1.88
2023-03-27T17:14:09.898Z,1.90
2023-03-27T17:16:37.277Z,1.30
2023-03-27T17:19:04.512Z,2.05
2023-03-27T17:21:31.659Z,2.53
2023-03-27T17:24:01.011Z,3.28
2023-03-27T17:26:30.810Z,2.28
2023-03-27T17:28:57.986Z,1.13
2023-03-27T17:31:25.653Z,1.38
2023-03-27T17:33:53.191Z,1.55
2023-03-27T17:36:29.728Z,1.48
2023-03-27T17:39:04.602Z,2.03
2023-03-27T17:41:31.558Z,2.63
2023-03-27T17:43:58.953Z,2.10
2023-03-27T17:46:26.160Z,1.42
2023-03-27T17:48:52.944Z,2.28
2023-03-27T17:51:19.764Z,2.25
2023-03-27T17:53:46.749Z,1.95
2023-03-27T17:56:15.136Z,2.00
2023-03-27T17:58:42.182Z,1.60
2023-03-27T18:01:15.117Z,1.40
2023-03-27T18:03:42.315Z,3.88
2023-03-27T18:06:11.406Z,1.98
2023-03-27T18:08:38.683Z,1.98
2023-03-27T18:11:08.857Z,1.10
2023-03-27T18:13:37.874Z,3.90
2023-03-27T18:16:07.148Z,0.85
2023-03-27T18:18:34.679Z,1.60
2023-03-27T18:21:01.750Z,1.95
2023-03-27T18:23:29.001Z,4.05
2023-03-27T18:25:56.047Z,1.35
2023-03-27T18:28:23.143Z,2.40
2023-03-27T18:31:00.089Z,1.98
2023-03-27T18:33:27.046Z,2.28
2023-03-27T18:35:55.040Z,3.03
2023-03-27T18:38:22.556Z,2.28
2023-03-27T18:40:49.711Z,2.05
2023-03-27T18:43:17.675Z,0.80
2023-03-27T18:45:45.066Z,3.10
2023-03-27T18:48:16.407Z,4.45
2023-03-27T18:50:45.248Z,4.78
2023-03-27T18:53:12.063Z,5.22
2023-03-27T18:55:39.156Z,2.55
2023-03-27T18:58:06.003Z,3.33
2023-03-27T19:00:33.043Z,3.63
2023-03-27T19:03:00.035Z,4.43
2023-03-27T19:05:28.937Z,3.15
2023-03-27T19:07:55.871Z,2.72
2023-03-27T19:10:22.972Z,4.30
2023-03-27T19:13:09.985Z,1.90
2023-03-27T19:15:59.326Z,6.78
2023-03-27T19:19:01.804Z,8.77
2023-03-27T19:21:49.397Z,4.97
2023-03-27T19:24:23.318Z,4.43
2023-03-27T19:26:51.057Z,3.22
2023-03-27T19:29:18.108Z,9.38
2023-03-27T19:31:45.257Z,9.80
2023-03-27T19:34:12.366Z,4.47
2023-03-27T19:36:39.306Z,7.68
2023-03-27T19:39:07.765Z,7.20
2023-03-27T19:41:34.858Z,6.50
2023-03-27T19:44:01.722Z,4.38
2023-03-27T19:46:28.741Z,3.83
2023-03-27T19:48:56.639Z,2.53
2023-03-27T19:51:39.690Z,2.55
2023-03-27T19:54:08.036Z,3.70
2023-03-27T19:56:35.377Z,2.83
2023-03-27T19:59:02.381Z,4.53
2023-03-27T20:01:29.539Z,3.33
2023-03-27T20:03:59.075Z,3.20
2023-03-27T20:06:26.014Z,4.47
2023-03-27T20:08:53.235Z,3.45
2023-03-27T20:11:21.583Z,6.45
2023-03-27T20:13:56.195Z,5.00
2023-03-27T20:16:26.594Z,3.17
2023-03-27T20:18:54.063Z,1.98
2023-03-27T20:21:23.776Z,2.60
2023-03-27T20:23:52.196Z,3.42
2023-03-27T20:26:24.502Z,1.13
2023-03-27T20:28:59.488Z,1.83
2023-03-27T20:31:26.706Z,1.92
2023-03-27T20:33:55.206Z,2.05
2023-03-27T20:36:22.408Z,1.30
2023-03-27T20:38:52.727Z,2.35
2023-03-27T20:41:20.185Z,3.80
2023-03-27T20:43:48.820Z,3.67
2023-03-27T20:46:15.937Z,3.85
2023-03-27T20:48:43.866Z,2.30
2023-03-27T20:51:22.100Z,2.60
2023-03-27T20:53:48.983Z,3.95
2023-03-27T20:56:15.948Z,2.35
2023-03-27T20:58:43.195Z,3.22
2023-03-27T21:01:11.714Z,2.92
2023-03-27T21:03:40.980Z,3.55
2023-03-27T21:06:13.539Z,2.35
2023-03-27T21:08:41.223Z,4.03
2023-03-27T21:11:08.526Z,2.47
2023-03-27T21:13:35.473Z,3.35
2023-03-27T21:16:03.797Z,2.70
2023-03-27T21:18:32.862Z,5.85
2023-03-27T21:20:59.993Z,2.85
2023-03-27T21:23:27.231Z,4.28
2023-03-27T21:25:54.107Z,6.40
2023-03-27T21:28:21.009Z,5.38
2023-03-27T21:30:48.680Z,3.25
2023-03-27T21:33:16.525Z,2.95
2023-03-27T21:35:46.190Z,5.10
2023-03-27T21:38:14.460Z,5.85
2023-03-27T21:40:41.640Z,4.22
2023-03-27T21:43:08.602Z,4.57
2023-03-27T21:45:36.601Z,4.45
2023-03-27T21:48:04.201Z,4.82
2023-03-27T21:50:31.351Z,1.65
2023-03-27T21:52:59.563Z,2.40
2023-03-27T21:55:26.893Z,1.77
2023-03-27T21:57:53.834Z,2.53
2023-03-27T22:00:20.843Z,3.88
2023-03-27T22:02:47.907Z,3.17
2023-03-27T22:05:15.000Z,2.45
2023-03-27T22:07:42.119Z,4.45
2023-03-27T22:10:11.792Z,1.88
2023-03-27T22:12:39.556Z,8.52
2023-03-27T22:15:09.561Z,3.75
2023-03-27T22:17:37.908Z,5.15
2023-03-27T22:20:07.633Z,7.43
2023-03-27T22:22:35.864Z,4.00
2023-03-27T22:25:03.204Z,2.72
2023-03-27T22:27:32.011Z,4.20
2023-03-27T22:29:59.373Z,5.13
2023-03-27T22:32:26.618Z,7.05
2023-03-27T22:34:53.833Z,2.40
2023-03-27T22:37:20.846Z,6.28
2023-03-27T22:39:47.952Z,3.20
2023-03-27T22:42:15.444Z,3.22
2023-03-27T22:44:44.703Z,8.18
2023-03-27T22:47:11.895Z,3.33
2023-03-27T22:49:38.770Z,5.57
2023-03-27T22:52:06.437Z,3.35
2023-03-27T22:54:33.459Z,4.18
2023-03-27T22:57:00.421Z,3.35
2023-03-27T22:59:27.411Z,2.88
2023-03-27T23:01:55.859Z,4.05
2023-03-27T23:04:22.872Z,3.15
2023-03-27T23:06:50.009Z,5.70
2023-03-27T23:09:17.792Z,3.38
2023-03-27T23:11:44.809Z,4.30
2023-03-27T23:14:11.941Z,8.70
2023-03-27T23:16:39.410Z,4.25
2023-03-27T23:19:07.820Z,3.37
2023-03-27T23:21:34.941Z,7.28
2023-03-27T23:24:02.491Z,4.10
2023-03-27T23:26:29.576Z,3.58
2023-03-27T23:28:56.393Z,6.22
2023-03-27T23:31:23.459Z,2.67
2023-03-27T23:33:51.012Z,7.03
2023-03-27T23:36:22.182Z,4.50
2023-03-27T23:38:50.097Z,5.22
2023-03-27T23:41:18.115Z,2.65
2023-03-27T23:43:45.626Z,2.88
2023-03-27T23:46:13.106Z,2.50
2023-03-27T23:48:43.052Z,1.30
2023-03-27T23:51:12.012Z,4.20
2023-03-27T23:53:41.101Z,1.15
2023-03-27T23:56:09.728Z,2.80
2023-03-27T23:58:37.390Z,3.05
